createdAt,value
2019-02-23T00:00:03.967Z,1040.11
2019-02-23T00:10:03.596Z,1040.02
2019-02-23T00:20:03.524Z,1040.02
2019-02-23T00:30:03.535Z,1040.15
2019-02-23T00:40:03.069Z,1040.12
2019-02-23T00:50:02.979Z,1040.19
2019-02-23T01:00:03.683Z,1040.31
2019-02-23T01:10:03.687Z,1040.24
2019-02-23T01:20:02.853Z,1040.26
2019-02-23T01:30:03.945Z,1040.36
2019-02-23T01:40:03.304Z,1040.46
2019-02-23T01:50:03.530Z,1040.58
2019-02-23T02:00:04.434Z,1040.48
2019-02-23T02:10:03.274Z,1040.69
2019-02-23T02:20:12.054Z,1040.70
2019-02-23T02:30:04.335Z,1040.77
2019-02-23T02:40:02.908Z,1040.75
2019-02-23T02:50:03.716Z,1040.71
2019-02-23T03:00:04.728Z,1040.73
2019-02-23T03:10:03.505Z,1040.62
2019-02-23T03:20:03.301Z,1040.55
2019-02-23T03:30:03.953Z,1040.57
2019-02-23T03:40:04.231Z,1040.69
2019-02-23T03:50:03.802Z,1040.82
2019-02-23T04:00:04.226Z,1040.76
2019-02-23T04:10:04.292Z,1040.80
2019-02-23T04:20:03.745Z,1040.74
2019-02-23T04:30:04.003Z,1040.63
2019-02-23T04:40:03.185Z,1040.71
2019-02-23T04:50:03.751Z,1040.55
2019-02-23T05:00:03.875Z,1040.45
2019-02-23T05:10:03.678Z,1040.47
2019-02-23T05:20:03.644Z,1040.65
2019-02-23T05:30:04.704Z,1040.77
2019-02-23T05:40:03.363Z,1040.90
2019-02-23T05:50:03.495Z,1040.71
2019-02-23T06:00:04.573Z,1040.59
2019-02-23T06:10:03.877Z,1040.59
2019-02-23T06:20:03.423Z,1040.73
2019-02-23T06:30:04.241Z,1040.96
2019-02-23T06:40:03.209Z,1040.86
2019-02-23T06:50:04.031Z,1041.00
2019-02-23T07:00:04.194Z,1041.08
2019-02-23T07:10:03.794Z,1041.15
2019-02-23T07:20:03.147Z,1041.00
2019-02-23T07:30:04.735Z,1040.72
2019-02-23T07:40:03.866Z,1040.68
2019-02-23T07:50:03.266Z,1040.74
2019-02-23T08:00:04.313Z,1041.03
2019-02-23T08:10:03.326Z,1041.16
2019-02-23T08:20:04.047Z,1040.91
2019-02-23T08:30:04.739Z,1040.99
2019-02-23T08:40:05.704Z,1041.36
2019-02-23T08:50:03.306Z,1041.14
2019-02-23T09:00:04.017Z,1041.01
2019-02-23T09:10:03.799Z,1041.04
2019-02-23T09:20:03.400Z,1041.44
2019-02-23T09:30:05.606Z,1041.39
2019-02-23T09:40:03.626Z,1041.49
2019-02-23T09:50:03.835Z,1041.64
2019-02-23T10:00:05.302Z,1041.72
2019-02-23T10:10:04.376Z,1041.54
2019-02-23T10:20:03.628Z,1041.45
2019-02-23T10:30:04.456Z,1041.39
2019-02-23T10:40:03.927Z,1041.48
2019-02-23T10:50:03.413Z,1041.67
2019-02-23T11:00:04.601Z,1041.41
2019-02-23T11:10:03.714Z,1041.38
2019-02-23T11:20:03.635Z,1041.22
2019-02-23T11:30:04.376Z,1040.91
2019-02-23T11:40:03.445Z,1040.67
2019-02-23T11:50:04.012Z,1040.49
2019-02-23T12:00:04.692Z,1040.41
2019-02-23T12:10:04.048Z,1040.56
2019-02-23T12:20:03.436Z,1040.67
2019-02-23T12:30:04.120Z,1040.63
2019-02-23T12:40:03.692Z,1040.40
2019-02-23T12:50:04.391Z,1040.15
2019-02-23T13:00:04.610Z,1040.05
2019-02-23T13:10:03.711Z,1040.10
2019-02-23T13:20:03.641Z,1040.00
2019-02-23T13:30:04.304Z,1039.74
2019-02-23T13:40:04.177Z,1039.81
2019-02-23T13:50:03.382Z,1039.71
2019-02-23T14:00:04.506Z,1039.53
2019-02-23T14:10:02.961Z,1039.30
2019-02-23T14:20:03.653Z,1039.32
2019-02-23T14:30:04.598Z,1039.16
2019-02-23T14:40:03.132Z,1039.09
2019-02-23T14:50:03.705Z,1039.10
2019-02-23T15:00:03.709Z,1039.23
2019-02-23T15:10:03.623Z,1039.11
2019-02-23T15:20:04.524Z,1039.08
2019-02-23T15:30:04.207Z,1039.14
2019-02-23T15:40:03.281Z,1039.17
2019-02-23T15:50:14.094Z,1038.97
2019-02-23T16:00:03.992Z,1039.09
2019-02-23T16:10:03.649Z,1039.00
2019-02-23T16:20:02.918Z,1038.98
2019-02-23T16:30:03.981Z,1039.21
2019-02-23T16:40:03.008Z,1039.23
2019-02-23T16:50:03.001Z,1039.53
2019-02-23T17:00:03.670Z,1039.59
2019-02-23T17:10:03.321Z,1039.73
2019-02-23T17:20:03.540Z,1039.86
2019-02-23T17:30:03.806Z,1040.01
2019-02-23T17:40:03.446Z,1040.19
2019-02-23T17:50:03.259Z,1040.20
2019-02-23T18:00:03.876Z,1040.13
2019-02-23T18:10:03.681Z,1040.18
2019-02-23T18:20:03.653Z,1040.35
2019-02-23T18:30:14.395Z,1040.36
2019-02-23T18:40:03.169Z,1040.37
2019-02-23T18:50:03.049Z,1040.41
2019-02-23T19:00:03.743Z,1040.36
2019-02-23T19:10:03.732Z,1040.26
2019-02-23T19:20:03.690Z,1040.21
2019-02-23T19:30:03.585Z,1040.13
2019-02-23T19:40:03.353Z,1039.99
2019-02-23T19:50:03.529Z,1039.96
2019-02-23T20:00:04.033Z,1040.13
2019-02-23T20:10:03.641Z,1040.18
2019-02-23T20:20:02.829Z,1040.26
2019-02-23T20:30:04.038Z,1040.28
2019-02-23T20:40:03.649Z,1040.24
2019-02-23T20:50:03.498Z,1040.02
2019-02-23T21:00:04.305Z,1039.97
2019-02-23T21:10:02.988Z,1040.03
2019-02-23T21:20:02.924Z,1039.96
2019-02-23T21:30:03.957Z,1039.98
2019-02-23T21:40:02.975Z,1040.08
2019-02-23T21:50:03.127Z,1039.95
2019-02-23T22:00:03.961Z,1040.09
2019-02-23T22:10:03.518Z,1039.97
2019-02-23T22:20:03.803Z,1040.01
2019-02-23T22:30:04.242Z,1040.10
2019-02-23T22:40:04.034Z,1040.05
2019-02-23T22:50:02.789Z,1040.02
2019-02-23T23:00:03.966Z,1039.97
2019-02-23T23:10:03.324Z,1039.90
2019-02-23T23:20:03.510Z,1039.74
2019-02-23T23:30:03.521Z,1039.56
2019-02-23T23:40:03.423Z,1039.45
2019-02-23T23:50:03.334Z,1039.57
